Time;durP1;ratioP1;P1;durP2;ratioP2;P2;SDS_P1;SDS_P2;PMS_P1;PMS_P2;Temp;Humidity;BMP_temperature;BMP_pressure;BME280_temperature;BME280_humidity;BME280_pressure;Samples;Min_cycle;Max_cycle;Signal;HPM_P1;HPM_P2
2022/09/23 00:01:57;;;;;;;1.80;1.10;;;;;;;;;;5071398;28;20393;-85
2022/09/23 00:04:24;;;;;;;2.97;1.10;;;;;;;;;;5070378;28;20029;-85
2022/09/23 00:06:51;;;;;;;4.05;1.00;;;;;;;;;;5069483;28;20052;-88
2022/09/23 00:09:17;;;;;;;1.40;0.95;;;;;;;;;;5071120;28;20204;-88
2022/09/23 00:11:43;;;;;;;2.55;0.95;;;;;;;;;;5072971;28;20111;-90
2022/09/23 00:14:09;;;;;;;2.97;0.90;;;;;;;;;;5074487;28;20020;-90
2022/09/23 00:16:37;;;;;;;1.88;1.00;;;;;;;;;;5074015;28;20547;-89
2022/09/23 00:19:03;;;;;;;1.40;1.00;;;;;;;;;;5072899;28;20071;-89
2022/09/23 00:21:29;;;;;;;3.65;1.20;;;;;;;;;;5074180;28;20073;-87
2022/09/23 00:23:55;;;;;;;3.00;1.00;;;;;;;;;;5074642;28;20154;-84
2022/09/23 00:26:22;;;;;;;1.58;1.00;;;;;;;;;;5074186;28;20092;-88
2022/09/23 00:28:49;;;;;;;2.15;0.90;;;;;;;;;;5074018;28;20487;-90
2022/09/23 00:31:17;;;;;;;1.20;0.90;;;;;;;;;;5073024;28;20104;-89
2022/09/23 00:33:43;;;;;;;1.77;1.20;;;;;;;;;;5072773;28;20029;-87
2022/09/23 00:36:14;;;;;;;1.75;1.02;;;;;;;;;;5074067;28;20013;-90
2022/09/23 00:38:40;;;;;;;2.20;1.25;;;;;;;;;;5073872;28;20543;-90
2022/09/23 00:41:07;;;;;;;1.88;0.95;;;;;;;;;;5073729;28;20430;-91
2022/09/23 00:43:37;;;;;;;2.22;0.90;;;;;;;;;;5067433;28;20108;-90
2022/09/23 00:46:04;;;;;;;2.13;0.93;;;;;;;;;;5073733;28;20067;-79
2022/09/23 00:48:30;;;;;;;1.63;0.90;;;;;;;;;;5072031;28;20099;-82
2022/09/23 00:50:56;;;;;;;1.35;1.00;;;;;;;;;;5073817;28;20511;-91
2022/09/23 00:53:25;;;;;;;2.30;1.05;;;;;;;;;;5072928;28;20020;-82
2022/09/23 00:55:55;;;;;;;1.35;1.00;;;;;;;;;;5072791;28;20480;-88
2022/09/23 00:58:25;;;;;;;1.65;1.10;;;;;;;;;;5073685;28;20056;-88
2022/09/23 01:00:52;;;;;;;1.70;1.00;;;;;;;;;;5072072;28;20021;-89
2022/09/23 01:03:18;;;;;;;1.00;0.80;;;;;;;;;;5070043;28;20022;-85
2022/09/23 01:05:45;;;;;;;2.72;1.17;;;;;;;;;;5059532;28;20590;-82
2022/09/23 01:08:12;;;;;;;2.30;1.25;;;;;;;;;;5067124;28;20039;-85
2022/09/23 01:10:44;;;;;;;1.05;0.90;;;;;;;;;;5066683;28;20103;-88
2022/09/23 01:13:30;;;;;;;2.05;1.00;;;;;;;;;;5065842;28;20017;-89
2022/09/23 01:16:06;;;;;;;3.28;0.90;;;;;;;;;;5052701;28;20025;-80
2022/09/23 01:18:36;;;;;;;1.50;1.33;;;;;;;;;;5065211;28;20036;-87
2022/09/23 01:21:22;;;;;;;1.55;0.85;;;;;;;;;;5067146;28;20024;-89
2022/09/23 01:24:01;;;;;;;1.75;0.95;;;;;;;;;;5067998;28;20056;-75
2022/09/23 01:26:46;;;;;;;1.00;0.80;;;;;;;;;;5061758;28;20020;-82
2022/09/23 01:29:27;;;;;;;1.17;0.95;;;;;;;;;;5067871;28;20498;-80
2022/09/23 01:31:54;;;;;;;1.17;0.98;;;;;;;;;;5068008;28;20029;-91
2022/09/23 01:34:36;;;;;;;1.30;0.80;;;;;;;;;;5066419;28;20035;-85
2022/09/23 01:37:21;;;;;;;2.25;0.90;;;;;;;;;;5068892;28;20645;-81
2022/09/23 01:40:01;;;;;;;1.20;0.82;;;;;;;;;;5055657;28;20024;-76
2022/09/23 01:42:40;;;;;;;2.70;0.82;;;;;;;;;;5063525;28;20082;-92
2022/09/23 01:45:13;;;;;;;1.02;0.93;;;;;;;;;;5067772;28;20029;-76
2022/09/23 01:47:42;;;;;;;2.30;1.08;;;;;;;;;;5067829;28;20128;-74
2022/09/23 01:53:02;;;;;;;2.95;1.00;;;;;;;;;;5068243;28;20093;-90
2022/09/23 01:55:31;;;;;;;1.00;0.80;;;;;;;;;;5067653;28;20082;-83
2022/09/23 01:57:59;;;;;;;2.67;1.13;;;;;;;;;;5068057;28;20048;-79
2022/09/23 02:00:33;;;;;;;2.83;0.95;;;;;;;;;;5063053;28;20465;-87
2022/09/23 02:03:30;;;;;;;1.73;0.75;;;;;;;;;;5060161;28;20044;-90
2022/09/23 02:06:18;;;;;;;1.02;0.82;;;;;;;;;;5052785;28;20036;-84
2022/09/23 02:08:50;;;;;;;2.55;0.80;;;;;;;;;;5068569;28;20032;-87
2022/09/23 02:11:17;;;;;;;1.00;0.90;;;;;;;;;;5068304;28;20024;-90
2022/09/23 02:13:52;;;;;;;2.20;0.90;;;;;;;;;;5068802;28;20017;-90
2022/09/23 02:16:24;;;;;;;2.13;1.10;;;;;;;;;;5067543;28;20020;-89
2022/09/23 02:18:57;;;;;;;2.08;1.00;;;;;;;;;;5056245;28;20055;-91
2022/09/23 02:21:26;;;;;;;0.93;0.60;;;;;;;;;;5073111;28;20025;-87
2022/09/23 02:23:55;;;;;;;2.65;1.13;;;;;;;;;;5064568;28;20058;-92
2022/09/23 02:26:33;;;;;;;4.85;1.30;;;;;;;;;;5071826;28;20017;-89
2022/09/23 02:29:09;;;;;;;3.03;1.13;;;;;;;;;;5060571;28;20025;-90
2022/09/23 02:31:47;;;;;;;2.78;1.25;;;;;;;;;;5073200;28;20110;-88
2022/09/23 02:34:32;;;;;;;3.92;1.20;;;;;;;;;;5059503;28;20031;-78
2022/09/23 02:37:08;;;;;;;2.63;1.10;;;;;;;;;;5058896;28;20086;-91
2022/09/23 02:39:49;;;;;;;4.07;1.23;;;;;;;;;;5060002;28;20012;-88
2022/09/23 02:42:18;;;;;;;2.95;1.30;;;;;;;;;;5072029;28;20111;-91
2022/09/23 02:44:44;;;;;;;2.28;1.17;;;;;;;;;;5070999;28;20128;-79
2022/09/23 02:47:10;;;;;;;2.75;1.02;;;;;;;;;;5072666;28;20164;-92
2022/09/23 02:49:36;;;;;;;1.33;1.15;;;;;;;;;;5067563;28;20115;-91
2022/09/23 02:52:04;;;;;;;1.63;1.20;;;;;;;;;;5072611;28;20020;-77
2022/09/23 02:54:32;;;;;;;1.83;0.85;;;;;;;;;;5071069;28;20108;-88
2022/09/23 02:57:01;;;;;;;1.75;1.17;;;;;;;;;;5071389;28;20054;-90
2022/09/23 02:59:27;;;;;;;1.92;1.17;;;;;;;;;;5070493;28;20024;-92
2022/09/23 03:02:05;;;;;;;2.38;1.92;;;;;;;;;;5068532;28;20025;-85
2022/09/23 03:04:32;;;;;;;2.65;1.20;;;;;;;;;;5067493;28;20505;-82
2022/09/23 03:07:10;;;;;;;3.10;1.40;;;;;;;;;;5067886;28;20107;-86
2022/09/23 03:09:46;;;;;;;2.60;1.30;;;;;;;;;;5069549;28;20029;-83
2022/09/23 03:12:33;;;;;;;1.73;1.02;;;;;;;;;;5069975;28;20021;-87
2022/09/23 03:15:09;;;;;;;4.55;1.55;;;;;;;;;;5067009;28;20392;-87
2022/09/23 03:17:38;;;;;;;2.05;1.20;;;;;;;;;;5066792;28;20032;-85
2022/09/23 03:20:09;;;;;;;1.27;1.17;;;;;;;;;;5066873;28;20043;-84
2022/09/23 03:22:48;;;;;;;1.60;1.10;;;;;;;;;;5063319;28;20095;-87
2022/09/23 03:25:22;;;;;;;1.95;1.20;;;;;;;;;;5063095;28;20029;-85
2022/09/23 03:27:49;;;;;;;5.68;1.10;;;;;;;;;;5067530;28;20517;-86
2022/09/23 03:30:17;;;;;;;1.45;1.17;;;;;;;;;;5066929;28;20032;-82
2022/09/23 03:32:45;;;;;;;1.40;1.15;;;;;;;;;;5066544;28;20031;-86
2022/09/23 03:35:13;;;;;;;3.75;1.15;;;;;;;;;;5067486;28;20020;-87
2022/09/23 03:37:41;;;;;;;1.60;1.10;;;;;;;;;;5067589;28;20064;-88
2022/09/23 03:40:20;;;;;;;2.42;1.10;;;;;;;;;;5067659;28;20055;-80
2022/09/23 03:42:49;;;;;;;1.48;1.20;;;;;;;;;;5063434;28;20050;-87
2022/09/23 03:45:17;;;;;;;3.25;1.15;;;;;;;;;;5067705;28;20029;-82
2022/09/23 03:47:43;;;;;;;4.25;1.63;;;;;;;;;;5067111;28;20111;-83
2022/09/23 03:50:12;;;;;;;1.20;0.90;;;;;;;;;;5067487;28;20012;-86
2022/09/23 03:52:38;;;;;;;2.38;1.20;;;;;;;;;;5066404;28;20056;-85
2022/09/23 03:55:05;;;;;;;2.25;1.08;;;;;;;;;;5064912;28;20107;-80
2022/09/23 03:57:31;;;;;;;1.20;1.00;;;;;;;;;;5064670;28;20044;-85
2022/09/23 03:59:57;;;;;;;1.90;1.05;;;;;;;;;;5066600;28;20027;-75
2022/09/23 04:02:23;;;;;;;2.17;1.00;;;;;;;;;;5066273;28;20108;-87
2022/09/23 04:04:50;;;;;;;1.80;1.20;;;;;;;;;;5066625;28;20039;-83
2022/09/23 04:07:16;;;;;;;1.40;1.15;;;;;;;;;;5065022;28;20166;-87
2022/09/23 04:09:43;;;;;;;1.65;1.20;;;;;;;;;;5061029;28;20116;-74
2022/09/23 04:12:12;;;;;;;2.72;1.02;;;;;;;;;;5066098;28;20442;-87
2022/09/23 04:14:38;;;;;;;1.67;1.10;;;;;;;;;;5064702;28;20052;-87
2022/09/23 04:17:04;;;;;;;1.42;1.20;;;;;;;;;;5066157;28;20040;-84
2022/09/23 04:19:31;;;;;;;1.85;1.20;;;;;;;;;;5065089;28;20021;-80
2022/09/23 04:21:57;;;;;;;2.35;1.20;;;;;;;;;;5058599;28;20028;-81
2022/09/23 04:24:23;;;;;;;2.60;0.93;;;;;;;;;;5065247;28;20052;-82
2022/09/23 04:26:51;;;;;;;2.08;1.00;;;;;;;;;;5064409;28;20021;-85
2022/09/23 04:29:17;;;;;;;2.88;1.10;;;;;;;;;;5064097;28;20031;-85
2022/09/23 04:31:43;;;;;;;3.53;0.93;;;;;;;;;;5066038;28;20763;-87
2022/09/23 04:34:09;;;;;;;2.80;1.20;;;;;;;;;;5054465;28;20103;-85
2022/09/23 04:36:36;;;;;;;3.50;1.23;;;;;;;;;;5066942;28;20051;-75
2022/09/23 04:39:03;;;;;;;1.58;1.23;;;;;;;;;;5066396;28;20104;-88
2022/09/23 04:41:29;;;;;;;3.50;1.27;;;;;;;;;;5064904;28;20035;-87
2022/09/23 04:43:56;;;;;;;2.13;1.15;;;;;;;;;;5066562;28;20131;-88
2022/09/23 04:46:22;;;;;;;3.92;1.27;;;;;;;;;;5066974;28;20045;-89
2022/09/23 04:48:49;;;;;;;1.60;1.10;;;;;;;;;;5067022;28;20043;-87
2022/09/23 04:51:16;;;;;;;1.98;1.10;;;;;;;;;;5066763;28;20052;-80
2022/09/23 04:53:43;;;;;;;2.35;1.15;;;;;;;;;;5065460;28;20035;-84
2022/09/23 04:56:11;;;;;;;1.65;1.30;;;;;;;;;;5065274;28;20027;-88
2022/09/23 04:58:38;;;;;;;4.03;1.20;;;;;;;;;;5065456;28;20028;-88
2022/09/23 05:01:13;;;;;;;2.67;1.40;;;;;;;;;;5065759;28;20083;-87
2022/09/23 05:03:40;;;;;;;2.75;1.20;;;;;;;;;;5066331;28;20108;-83
2022/09/23 05:06:07;;;;;;;1.67;1.20;;;;;;;;;;5066333;28;20102;-87
2022/09/23 05:08:33;;;;;;;1.17;1.08;;;;;;;;;;5066013;28;20019;-82
2022/09/23 05:11:00;;;;;;;7.80;1.73;;;;;;;;;;5067084;28;20052;-88
2022/09/23 05:13:27;;;;;;;3.85;1.50;;;;;;;;;;5065225;28;20197;-88
2022/09/23 05:16:03;;;;;;;2.60;1.27;;;;;;;;;;5062628;28;20040;-83
2022/09/23 05:18:32;;;;;;;2.72;1.30;;;;;;;;;;5062312;28;20028;-81
2022/09/23 05:20:59;;;;;;;1.10;1.00;;;;;;;;;;5065089;28;20714;-77
2022/09/23 05:23:26;;;;;;;4.15;1.13;;;;;;;;;;5063834;28;20017;-87
2022/09/23 05:26:02;;;;;;;3.10;1.30;;;;;;;;;;5065191;28;20028;-86
2022/09/23 05:28:31;;;;;;;2.80;1.30;;;;;;;;;;5064783;28;20070;-87
2022/09/23 05:31:17;;;;;;;4.00;1.38;;;;;;;;;;5063675;28;20103;-89
2022/09/23 05:33:45;;;;;;;3.60;1.02;;;;;;;;;;5064829;28;20380;-80
2022/09/23 05:36:12;;;;;;;3.97;1.17;;;;;;;;;;5065749;28;20036;-74
2022/09/23 05:38:39;;;;;;;2.20;1.20;;;;;;;;;;5065187;28;20456;-77
2022/09/23 05:41:06;;;;;;;2.92;1.35;;;;;;;;;;5066106;28;20020;-82
2022/09/23 05:43:33;;;;;;;4.22;1.20;;;;;;;;;;5065937;28;20081;-76
2022/09/23 05:46:03;;;;;;;3.10;1.13;;;;;;;;;;5063139;28;20025;-83
2022/09/23 05:48:31;;;;;;;3.38;1.20;;;;;;;;;;5064676;28;20052;-89
2022/09/23 05:50:58;;;;;;;3.22;1.30;;;;;;;;;;5063253;28;20387;-89
2022/09/23 05:53:24;;;;;;;3.05;1.20;;;;;;;;;;5066966;28;20021;-85
2022/09/23 05:55:50;;;;;;;3.67;1.38;;;;;;;;;;5067255;28;20025;-80
2022/09/23 05:58:17;;;;;;;1.83;1.13;;;;;;;;;;5062519;28;20237;-83
2022/09/23 06:00:43;;;;;;;2.88;1.20;;;;;;;;;;5064247;28;20807;-84
2022/09/23 06:03:16;;;;;;;3.20;1.15;;;;;;;;;;5068926;28;20585;-87
2022/09/23 06:05:42;;;;;;;3.88;1.25;;;;;;;;;;5069123;28;20029;-82
2022/09/23 06:08:09;;;;;;;1.60;0.90;;;;;;;;;;5053638;28;20319;-75
2022/09/23 06:10:45;;;;;;;1.23;1.10;;;;;;;;;;5068946;28;20021;-83
2022/09/23 06:13:11;;;;;;;7.10;1.23;;;;;;;;;;5068902;28;20040;-82
2022/09/23 06:15:38;;;;;;;2.17;1.10;;;;;;;;;;5069375;28;20020;-87
2022/09/23 06:18:05;;;;;;;4.53;1.42;;;;;;;;;;5068412;28;20072;-87
2022/09/23 06:20:33;;;;;;;3.60;1.38;;;;;;;;;;5069001;28;20112;-82
2022/09/23 06:23:06;;;;;;;8.52;1.55;;;;;;;;;;5057618;28;20037;-87
2022/09/23 06:25:33;;;;;;;3.53;1.23;;;;;;;;;;5054556;28;20075;-83
2022/09/23 06:27:59;;;;;;;4.82;1.38;;;;;;;;;;5060846;28;20148;-89
2022/09/23 06:30:26;;;;;;;1.73;1.27;;;;;;;;;;5056043;28;20484;-89
2022/09/23 06:32:54;;;;;;;3.25;1.35;;;;;;;;;;5056493;28;20556;-81
2022/09/23 06:35:21;;;;;;;3.05;1.50;;;;;;;;;;5053947;28;20426;-83
2022/09/23 06:37:47;;;;;;;3.67;1.65;;;;;;;;;;5064718;28;20041;-72
2022/09/23 06:40:14;;;;;;;8.23;2.03;;;;;;;;;;5056925;28;20021;-78
2022/09/23 06:42:41;;;;;;;3.22;1.92;;;;;;;;;;5048456;28;20472;-80
2022/09/23 06:45:10;;;;;;;5.10;1.90;;;;;;;;;;5048251;28;20108;-77
2022/09/23 06:47:36;;;;;;;3.72;1.50;;;;;;;;;;5064681;28;20621;-81
2022/09/23 06:50:03;;;;;;;4.32;1.80;;;;;;;;;;5064537;28;20113;-82
2022/09/23 06:52:29;;;;;;;3.80;1.52;;;;;;;;;;5062923;28;20104;-82
2022/09/23 06:54:56;;;;;;;2.75;1.63;;;;;;;;;;5064752;28;20108;-81
2022/09/23 06:57:23;;;;;;;5.00;1.90;;;;;;;;;;5061946;28;20867;-80
2022/09/23 06:59:49;;;;;;;4.20;1.52;;;;;;;;;;5063778;28;20047;-74
2022/09/23 07:02:16;;;;;;;3.00;1.60;;;;;;;;;;5064553;28;20021;-72
2022/09/23 07:04:42;;;;;;;3.58;1.67;;;;;;;;;;5063792;28;20112;-77
2022/09/23 07:07:10;;;;;;;3.35;1.90;;;;;;;;;;5064420;28;20029;-83
2022/09/23 07:09:37;;;;;;;7.50;2.33;;;;;;;;;;5049297;28;20078;-77
2022/09/23 07:12:03;;;;;;;11.25;2.30;;;;;;;;;;5048081;28;20020;-77
2022/09/23 07:14:29;;;;;;;8.40;1.63;;;;;;;;;;5048351;28;20020;-80
2022/09/23 07:16:57;;;;;;;5.00;2.05;;;;;;;;;;5048844;28;20119;-80
2022/09/23 07:19:25;;;;;;;2.92;1.50;;;;;;;;;;5045148;28;20009;-81
2022/09/23 07:21:51;;;;;;;1.98;1.75;;;;;;;;;;5046767;28;20665;-81
2022/09/23 07:24:17;;;;;;;4.88;1.58;;;;;;;;;;5051428;28;20108;-79
2022/09/23 07:26:43;;;;;;;3.90;1.90;;;;;;;;;;5045177;28;20532;-74
2022/09/23 07:29:12;;;;;;;3.53;1.77;;;;;;;;;;5047055;28;20086;-74
2022/09/23 07:31:38;;;;;;;5.30;2.05;;;;;;;;;;5045315;28;20082;-74
2022/09/23 07:34:04;;;;;;;3.30;2.22;;;;;;;;;;5056864;28;20036;-81
2022/09/23 07:36:31;;;;;;;5.10;1.92;;;;;;;;;;5062342;28;20594;-84
2022/09/23 07:39:01;;;;;;;2.40;1.58;;;;;;;;;;5062426;28;20055;-84
2022/09/23 07:41:27;;;;;;;3.83;1.77;;;;;;;;;;5064146;28;20017;-77
2022/09/23 07:43:57;;;;;;;3.25;1.80;;;;;;;;;;5062027;28;20476;-85
2022/09/23 07:46:24;;;;;;;4.15;1.50;;;;;;;;;;5062921;28;20366;-82
2022/09/23 07:48:52;;;;;;;5.28;1.70;;;;;;;;;;5063219;28;20323;-75
2022/09/23 07:51:25;;;;;;;3.70;1.48;;;;;;;;;;5063178;28;20032;-84
2022/09/23 07:53:52;;;;;;;1.83;1.27;;;;;;;;;;5061510;28;20028;-79
2022/09/23 07:56:19;;;;;;;1.95;1.55;;;;;;;;;;5062539;28;20099;-85
2022/09/23 07:58:58;;;;;;;2.90;1.77;;;;;;;;;;5061407;28;20058;-82
2022/09/23 08:01:26;;;;;;;1.98;1.38;;;;;;;;;;5061523;28;20373;-78
2022/09/23 08:03:52;;;;;;;4.82;1.52;;;;;;;;;;5060593;28;20860;-81
2022/09/23 08:06:19;;;;;;;1.90;1.40;;;;;;;;;;5058004;28;20408;-82
2022/09/23 08:08:45;;;;;;;6.30;1.77;;;;;;;;;;5059757;28;20047;-87
2022/09/23 08:11:13;;;;;;;4.07;1.55;;;;;;;;;;5057082;28;20043;-87
2022/09/23 08:13:39;;;;;;;2.97;1.80;;;;;;;;;;5058217;28;20741;-86
2022/09/23 08:16:06;;;;;;;2.40;1.65;;;;;;;;;;5059463;28;20025;-85
2022/09/23 08:18:32;;;;;;;1.98;1.52;;;;;;;;;;5061665;28;20025;-82
2022/09/23 08:20:58;;;;;;;1.67;1.48;;;;;;;;;;5061021;28;20491;-85
2022/09/23 08:23:25;;;;;;;2.42;1.58;;;;;;;;;;5061921;28;20119;-86
2022/09/23 08:25:58;;;;;;;2.20;1.58;;;;;;;;;;5061414;28;20553;-78
2022/09/23 08:28:25;;;;;;;2.90;1.70;;;;;;;;;;5060746;28;20024;-80
2022/09/23 08:30:51;;;;;;;3.13;1.70;;;;;;;;;;5061320;28;21009;-84
2022/09/23 08:33:18;;;;;;;2.92;1.70;;;;;;;;;;5062524;28;20017;-82
2022/09/23 08:35:44;;;;;;;3.67;1.50;;;;;;;;;;5060439;28;20029;-82
2022/09/23 08:38:10;;;;;;;2.35;1.60;;;;;;;;;;5058432;28;20524;-77
2022/09/23 08:40:38;;;;;;;4.47;1.95;;;;;;;;;;5057734;28;20400;-81
2022/09/23 08:43:08;;;;;;;2.83;1.80;;;;;;;;;;5049965;28;20442;-81
2022/09/23 08:45:35;;;;;;;3.28;1.70;;;;;;;;;;5056800;28;20024;-82
2022/09/23 08:48:04;;;;;;;2.50;1.77;;;;;;;;;;5056340;28;20109;-80
2022/09/23 08:50:45;;;;;;;12.70;2.55;;;;;;;;;;5061396;28;20012;-81
2022/09/23 08:53:14;;;;;;;3.83;2.05;;;;;;;;;;5061272;28;20017;-82
2022/09/23 08:55:47;;;;;;;4.00;2.10;;;;;;;;;;5061847;28;20044;-85
2022/09/23 08:58:24;;;;;;;4.03;2.00;;;;;;;;;;5060673;28;20037;-79
2022/09/23 09:00:59;;;;;;;4.63;2.10;;;;;;;;;;5061883;28;20107;-81
2022/09/23 09:03:30;;;;;;;3.15;1.83;;;;;;;;;;5061414;28;20094;-79
2022/09/23 09:05:57;;;;;;;3.97;1.77;;;;;;;;;;5061484;28;20073;-79
2022/09/23 09:08:44;;;;;;;6.15;2.13;;;;;;;;;;5058900;28;20082;-81
2022/09/23 09:11:11;;;;;;;4.65;1.80;;;;;;;;;;5062170;28;20096;-80
2022/09/23 09:13:46;;;;;;;4.18;2.17;;;;;;;;;;5061382;28;20167;-78
2022/09/23 09:16:25;;;;;;;3.92;1.83;;;;;;;;;;5060118;28;20743;-76
2022/09/23 09:18:53;;;;;;;3.92;1.88;;;;;;;;;;5048127;28;20032;-79
2022/09/23 09:21:22;;;;;;;6.80;1.83;;;;;;;;;;5061251;28;20028;-79
2022/09/23 09:23:54;;;;;;;5.03;2.00;;;;;;;;;;5061456;28;20023;-79
2022/09/23 09:26:21;;;;;;;3.28;2.30;;;;;;;;;;5061843;28;20094;-79
2022/09/23 09:31:51;;;;;;;4.05;1.92;;;;;;;;;;4978529;28;20097;-95
2022/09/23 09:34:23;;;;;;;2.30;1.75;;;;;;;;;;5073415;28;20040;-95
2022/09/23 09:37:00;;;;;;;5.60;1.85;;;;;;;;;;5073591;28;20363;-94
2022/09/23 09:39:27;;;;;;;4.80;2.00;;;;;;;;;;5074204;28;20027;-94
2022/09/23 09:41:57;;;;;;;3.85;1.80;;;;;;;;;;5073386;28;20498;-94
2022/09/23 09:44:34;;;;;;;3.17;1.70;;;;;;;;;;5073423;28;20016;-94
2022/09/23 09:47:06;;;;;;;2.58;1.50;;;;;;;;;;5073508;28;20505;-94
2022/09/23 09:49:40;;;;;;;5.45;1.70;;;;;;;;;;5057256;28;20060;-95
2022/09/23 09:52:14;;;;;;;5.93;1.95;;;;;;;;;;5073668;28;20124;-94
2022/09/23 09:54:43;;;;;;;6.53;2.00;;;;;;;;;;5073343;28;20529;-96
2022/09/23 09:57:16;;;;;;;5.22;2.25;;;;;;;;;;5073465;28;20025;-94
2022/09/23 09:59:43;;;;;;;3.10;1.65;;;;;;;;;;5073315;28;20127;-95
2022/09/23 10:02:21;;;;;;;4.03;2.00;;;;;;;;;;5073323;28;20196;-94
2022/09/23 10:04:55;;;;;;;2.83;1.60;;;;;;;;;;5073533;28;20780;-94
2022/09/23 10:07:25;;;;;;;3.50;1.83;;;;;;;;;;5073293;28;20048;-94
2022/09/23 10:09:51;;;;;;;5.07;2.28;;;;;;;;;;5073690;28;20070;-95
2022/09/23 10:12:19;;;;;;;3.40;1.83;;;;;;;;;;5073116;28;20497;-94
2022/09/23 10:14:46;;;;;;;7.35;2.08;;;;;;;;;;5073252;28;20060;-94
2022/09/23 10:17:18;;;;;;;3.22;1.70;;;;;;;;;;5073398;28;20087;-94
2022/09/23 10:19:47;;;;;;;4.45;1.90;;;;;;;;;;5073236;28;20081;-95
2022/09/23 10:22:22;;;;;;;8.73;2.30;;;;;;;;;;5073998;28;20115;-95
2022/09/23 10:24:53;;;;;;;5.30;2.00;;;;;;;;;;5073193;28;20054;-94
2022/09/23 10:27:30;;;;;;;7.68;1.88;;;;;;;;;;5073091;28;20060;-95
2022/09/23 10:29:58;;;;;;;3.30;1.63;;;;;;;;;;5073320;28;20052;-95
2022/09/23 10:32:36;;;;;;;3.08;1.92;;;;;;;;;;5072781;28;20516;-94
2022/09/23 10:35:14;;;;;;;2.08;1.50;;;;;;;;;;5073230;28;20036;-94
2022/09/23 10:37:47;;;;;;;4.20;1.95;;;;;;;;;;5072795;28;20032;-95
2022/09/23 10:49:11;;;;;;;6.88;1.85;;;;;;;;;;5077371;28;20093;-94
2022/09/23 10:51:44;;;;;;;1.60;1.40;;;;;;;;;;5076278;28;20035;-95
2022/09/23 10:54:17;;;;;;;3.33;1.70;;;;;;;;;;5076194;28;20024;-96
2022/09/23 10:56:49;;;;;;;2.33;1.60;;;;;;;;;;5076330;28;20453;-94
2022/09/23 10:59:28;;;;;;;6.65;1.92;;;;;;;;;;5076860;28;20029;-95
2022/09/23 11:02:09;;;;;;;3.33;1.52;;;;;;;;;;5076327;28;20024;-94
2022/09/23 11:05:01;;;;;;;3.90;1.75;;;;;;;;;;5076223;28;20069;-95
2022/09/23 11:07:34;;;;;;;3.95;1.70;;;;;;;;;;5059430;28;20389;-96
2022/09/23 11:10:39;;;;;;;6.03;1.77;;;;;;;;;;5076165;28;20024;-94
2022/09/23 11:13:16;;;;;;;4.28;1.70;;;;;;;;;;4999603;28;20033;-95
2022/09/23 11:16:01;;;;;;;2.30;1.55;;;;;;;;;;4999521;28;20593;-94
2022/09/23 11:18:41;;;;;;;2.75;1.40;;;;;;;;;;5050671;28;20024;-95
2022/09/23 11:21:07;;;;;;;2.75;1.23;;;;;;;;;;5076118;28;20092;-94
2022/09/23 11:23:45;;;;;;;2.58;1.50;;;;;;;;;;5075962;28;20067;-94
2022/09/23 11:26:18;;;;;;;4.75;1.42;;;;;;;;;;5076813;28;20363;-95
2022/09/23 11:29:04;;;;;;;1.75;1.33;;;;;;;;;;5076039;28;20020;-94
2022/09/23 11:31:36;;;;;;;1.58;1.25;;;;;;;;;;5035911;28;20076;-95
2022/09/23 11:34:06;;;;;;;4.35;1.42;;;;;;;;;;5076034;28;20020;-95
2022/09/23 11:36:35;;;;;;;1.30;1.15;;;;;;;;;;5075842;28;20021;-95
2022/09/23 11:39:05;;;;;;;3.25;1.30;;;;;;;;;;5075988;28;20118;-93
2022/09/23 11:41:34;;;;;;;1.55;1.25;;;;;;;;;;5075584;28;20362;-93
2022/09/23 11:44:08;;;;;;;3.30;1.55;;;;;;;;;;5075377;28;20024;-95
2022/09/23 11:46:38;;;;;;;3.58;1.40;;;;;;;;;;5075206;28;20597;-94
2022/09/23 11:49:09;;;;;;;2.03;1.30;;;;;;;;;;5075671;28;20017;-94
2022/09/23 11:51:40;;;;;;;6.53;1.50;;;;;;;;;;5075244;28;20103;-94
2022/09/23 11:54:33;;;;;;;2.67;1.50;;;;;;;;;;5076238;28;20429;-94
2022/09/23 11:57:01;;;;;;;3.33;1.40;;;;;;;;;;5072890;28;20037;-94
2022/09/23 11:59:50;;;;;;;2.10;1.23;;;;;;;;;;5075879;28;20024;-93
2022/09/23 12:02:35;;;;;;;3.65;1.30;;;;;;;;;;5075293;28;20573;-94
2022/09/23 12:05:03;;;;;;;3.00;1.30;;;;;;;;;;5074888;28;20549;-94
2022/09/23 12:07:50;;;;;;;3.17;1.42;;;;;;;;;;5075396;28;20132;-94
2022/09/23 12:10:17;;;;;;;4.63;2.40;;;;;;;;;;5075026;28;20478;-94
2022/09/23 12:12:52;;;;;;;3.67;1.65;;;;;;;;;;5074797;28;20148;-94
2022/09/23 12:15:24;;;;;;;4.75;2.47;;;;;;;;;;5074666;28;20025;-93
2022/09/23 12:18:09;;;;;;;5.38;1.55;;;;;;;;;;5074743;28;20449;-93
2022/09/23 12:20:41;;;;;;;3.30;1.45;;;;;;;;;;5074700;28;20040;-93
2022/09/23 12:23:08;;;;;;;4.72;2.22;;;;;;;;;;5074367;28;20021;-94
2022/09/23 12:25:34;;;;;;;4.28;1.95;;;;;;;;;;5074672;28;20025;-94
2022/09/23 12:28:06;;;;;;;4.05;2.25;;;;;;;;;;5074324;28;20074;-95
2022/09/23 12:30:34;;;;;;;3.58;1.65;;;;;;;;;;5073947;28;20079;-94
2022/09/23 12:33:14;;;;;;;2.65;1.52;;;;;;;;;;5074405;28;20029;-94
2022/09/23 12:35:43;;;;;;;7.10;1.52;;;;;;;;;;5074337;28;20389;-93
2022/09/23 12:38:20;;;;;;;6.78;1.67;;;;;;;;;;5074370;28;20052;-95
2022/09/23 12:40:47;;;;;;;2.97;1.60;;;;;;;;;;5074369;28;20058;-95
2022/09/23 12:43:18;;;;;;;2.58;1.40;;;;;;;;;;5074295;28;20033;-95
2022/09/23 12:45:44;;;;;;;2.35;1.00;;;;;;;;;;5074112;28;20027;-93
2022/09/23 12:48:13;;;;;;;5.68;1.60;;;;;;;;;;5074054;28;20035;-95
2022/09/23 12:51:15;;;;;;;2.85;1.10;;;;;;;;;;5074347;28;20367;-94
2022/09/23 12:53:51;;;;;;;2.95;1.17;;;;;;;;;;5074063;28;20078;-94
2022/09/23 12:56:19;;;;;;;2.75;1.50;;;;;;;;;;5074011;28;20016;-94
2022/09/23 12:58:48;;;;;;;1.75;1.10;;;;;;;;;;5074305;28;20046;-94
2022/09/23 13:01:14;;;;;;;2.72;1.20;;;;;;;;;;5074117;28;20029;-93
2022/09/23 13:06:55;;;;;;;4.10;1.10;;;;;;;;;;5075097;28;20062;-94
2022/09/23 13:09:31;;;;;;;3.08;1.48;;;;;;;;;;5037602;28;20494;-96
2022/09/23 13:11:59;;;;;;;2.08;1.25;;;;;;;;;;5073782;28;20031;-94
2022/09/23 13:14:27;;;;;;;1.65;1.10;;;;;;;;;;5074011;28;20124;-94
2022/09/23 13:16:53;;;;;;;4.93;1.30;;;;;;;;;;5073573;28;20116;-94
2022/09/23 13:19:25;;;;;;;4.65;1.48;;;;;;;;;;5074030;28;20493;-95
2022/09/23 13:21:57;;;;;;;2.60;1.30;;;;;;;;;;5074284;28;20037;-95
2022/09/23 13:24:25;;;;;;;3.45;1.23;;;;;;;;;;5073958;28;20131;-94
2022/09/23 13:27:17;;;;;;;2.20;1.00;;;;;;;;;;5073648;28;20028;-94
2022/09/23 13:29:46;;;;;;;4.32;1.20;;;;;;;;;;5070508;28;20051;-95
2022/09/23 13:32:15;;;;;;;1.55;0.95;;;;;;;;;;5073796;28;20041;-94
2022/09/23 13:34:43;;;;;;;2.63;1.13;;;;;;;;;;5073657;28;20148;-93
2022/09/23 13:37:46;;;;;;;2.70;1.27;;;;;;;;;;5073867;28;20024;-95
2022/09/23 13:40:20;;;;;;;1.70;1.00;;;;;;;;;;4997008;28;20033;-95
2022/09/23 13:42:48;;;;;;;1.27;0.93;;;;;;;;;;5063267;28;20068;-94
2022/09/23 13:45:18;;;;;;;2.55;1.02;;;;;;;;;;5074067;28;20086;-95
2022/09/23 13:47:46;;;;;;;1.70;1.00;;;;;;;;;;5073666;28;20028;-94
2022/09/23 13:50:23;;;;;;;2.00;1.00;;;;;;;;;;5073495;28;20268;-93
2022/09/23 13:52:54;;;;;;;1.83;1.30;;;;;;;;;;5073440;28;20024;-94
2022/09/23 13:55:20;;;;;;;;;;;;;;;;;;5073713;28;20021;-94
2022/09/23 13:57:56;;;;;;;1.85;1.10;;;;;;;;;;5073875;28;19911;-94
2022/09/23 14:00:24;;;;;;;2.25;1.20;;;;;;;;;;5073634;28;20508;-95
2022/09/23 14:02:51;;;;;;;4.97;1.20;;;;;;;;;;5073562;28;20474;-94
2022/09/23 14:05:22;;;;;;;2.53;1.00;;;;;;;;;;5074395;28;20482;-94
2022/09/23 14:07:50;;;;;;;1.63;0.80;;;;;;;;;;5073134;28;20120;-95
2022/09/23 14:10:21;;;;;;;3.30;1.25;;;;;;;;;;5073012;28;20033;-94
2022/09/23 14:12:51;;;;;;;4.57;1.30;;;;;;;;;;5073394;28;20036;-94
2022/09/23 14:15:18;;;;;;;1.98;1.05;;;;;;;;;;5076263;28;20078;-94
2022/09/23 14:18:05;;;;;;;1.95;1.25;;;;;;;;;;5077322;28;20170;-94
2022/09/23 14:20:33;;;;;;;4.55;1.20;;;;;;;;;;5076931;28;20032;-93
2022/09/23 14:23:03;;;;;;;5.47;1.58;;;;;;;;;;5076943;28;20027;-93
2022/09/23 14:25:29;;;;;;;1.67;1.10;;;;;;;;;;5077050;28;20028;-93
2022/09/23 14:27:55;;;;;;;4.43;1.63;;;;;;;;;;5076755;28;20490;-94
2022/09/23 14:30:22;;;;;;;6.18;1.30;;;;;;;;;;5077010;28;20044;-93
2022/09/23 14:32:48;;;;;;;4.25;1.20;;;;;;;;;;5076945;28;20452;-95
2022/09/23 14:35:23;;;;;;;2.33;0.90;;;;;;;;;;5077033;28;20052;-94
2022/09/23 14:41:14;;;;;;;4.80;1.30;;;;;;;;;;5078132;28;20122;-94
2022/09/23 14:43:45;;;;;;;2.65;1.17;;;;;;;;;;5077277;28;20021;-94
2022/09/23 14:46:13;;;;;;;3.67;1.17;;;;;;;;;;5076867;28;20561;-94
2022/09/23 14:48:39;;;;;;;3.35;1.25;;;;;;;;;;5076416;28;20071;-95
2022/09/23 14:51:08;;;;;;;3.15;1.17;;;;;;;;;;5076389;28;20017;-93
2022/09/23 14:53:34;;;;;;;2.53;1.23;;;;;;;;;;5076324;28;20417;-95
2022/09/23 14:56:06;;;;;;;3.00;1.00;;;;;;;;;;5076528;28;20031;-95
2022/09/23 14:58:44;;;;;;;2.85;1.17;;;;;;;;;;5076294;28;20020;-93
2022/09/23 15:01:28;;;;;;;1.33;0.90;;;;;;;;;;5076704;28;20031;-94
2022/09/23 15:03:56;;;;;;;2.00;1.20;;;;;;;;;;5076236;28;20024;-94
2022/09/23 15:06:23;;;;;;;1.67;0.73;;;;;;;;;;5076436;28;20052;-93
2022/09/23 15:08:50;;;;;;;1.35;1.08;;;;;;;;;;5076219;28;20062;-94
2022/09/23 15:11:17;;;;;;;3.72;1.50;;;;;;;;;;5076347;28;20115;-93
2022/09/23 15:13:46;;;;;;;4.10;1.17;;;;;;;;;;5076262;28;20017;-94
2022/09/23 15:16:14;;;;;;;1.15;0.90;;;;;;;;;;5076203;28;20539;-93
2022/09/23 15:18:42;;;;;;;2.70;1.10;;;;;;;;;;5075714;28;20024;-94
2022/09/23 15:21:13;;;;;;;2.13;0.98;;;;;;;;;;5075930;28;20068;-94
2022/09/23 15:23:45;;;;;;;4.93;1.33;;;;;;;;;;5076588;28;20033;-93
2022/09/23 15:26:20;;;;;;;2.33;0.95;;;;;;;;;;5075780;28;20523;-94